Página principal
METAR-TAF:

METAR-TAF

Aeroportos :

Aeroporto Internacional Simón Bolívar

Caracas, Venezuela

latitude: 10-36N, longitude: 066-59W, altura: 43 m

Observação actual do tempo

O boletim foi feito há 25 minutos, às 06:00 UTC
Vento calmo
Temperatura 24°C
Humidade 89%
Pressão 1009 hPa
Visibilidade 10 km ou mais
Poucas nuvensa uma altura de 1600 ft

METAR: SVMI 220600Z 00000KT 9999 FEW016 24/22 Q1009

Hora: 02:25 (06:25 UTC)

Previsão

O boletim foi feito há 2 horas e 25 minutos, às 04:00 UTC
Previsão válida de 22 às 06 UTC a 23 às 06 UTC
Vento 2 kt de este
Visibilidade 10 km ou mais
Poucas nuvensa uma altura de 1600 ft
Tornando-se
de 22 às 06 UTC a 22 às 10 UTC
Vento 4 kt de este
Visibilidade 10 km ou mais
Nuvens dispersasa uma altura de 1600 ft

TAF: SVMI 220400Z 2206/2306 09002KT 9999 FEW016 TX31/19Z TN23/09Z BECMG 2206/2210 09004KT 9999 SCT016

Observações e previsões do tempo de mais de 4000 aeroportos (mensagens METAR e TAF).

As estações disponíveis são os pontos amarelos e vermelhos sobre o mapa.

Mova o rato sobre o mapa para ver o nome da estação.

Depois clique no ponto para visualizar as observações e previsões meteorológicas.

Para alterar o mapa : clique nos botões verdes com uma cruz preta para aumentar o zoom; no botão verde com uma pitada de zoom; ou nas setas verdes para mapas adjacentes.


METAR-TAF: